sensor_id;sensor_type;location;lat;lon;timestamp;P1;durP1;ratioP1;P2;durP2;ratioP2
30515;SDS011;17297;54.022;10.760;2024-02-26T00:00:08;3.42;;;3.03;;
30515;SDS011;17297;54.022;10.760;2024-02-26T00:02:36;4.20;;;3.55;;
30515;SDS011;17297;54.022;10.760;2024-02-26T00:05:06;4.32;;;3.20;;
30515;SDS011;17297;54.022;10.760;2024-02-26T00:07:32;4.05;;;3.60;;
30515;SDS011;17297;54.022;10.760;2024-02-26T00:09:57;4.60;;;3.78;;
30515;SDS011;17297;54.022;10.760;2024-02-26T00:12:22;5.22;;;4.15;;
30515;SDS011;17297;54.022;10.760;2024-02-26T00:14:48;5.78;;;4.15;;
30515;SDS011;17297;54.022;10.760;2024-02-26T00:17:14;5.15;;;4.30;;
30515;SDS011;17297;54.022;10.760;2024-02-26T00:19:40;4.90;;;3.92;;
30515;SDS011;17297;54.022;10.760;2024-02-26T00:22:06;5.22;;;3.72;;
30515;SDS011;17297;54.022;10.760;2024-02-26T00:24:31;4.78;;;4.20;;
30515;SDS011;17297;54.022;10.760;2024-02-26T00:26:56;5.03;;;3.83;;
30515;SDS011;17297;54.022;10.760;2024-02-26T00:29:22;4.30;;;3.58;;
30515;SDS011;17297;54.022;10.760;2024-02-26T00:31:48;4.22;;;3.65;;
30515;SDS011;17297;54.022;10.760;2024-02-26T00:34:13;4.40;;;3.88;;
30515;SDS011;17297;54.022;10.760;2024-02-26T00:36:39;3.38;;;3.13;;
30515;SDS011;17297;54.022;10.760;2024-02-26T00:39:04;5.70;;;3.75;;
30515;SDS011;17297;54.022;10.760;2024-02-26T00:41:29;4.22;;;3.65;;
30515;SDS011;17297;54.022;10.760;2024-02-26T00:43:55;5.03;;;3.92;;
30515;SDS011;17297;54.022;10.760;2024-02-26T00:46:20;3.92;;;3.50;;
30515;SDS011;17297;54.022;10.760;2024-02-26T00:48:45;4.75;;;4.20;;
30515;SDS011;17297;54.022;10.760;2024-02-26T00:51:11;4.40;;;4.00;;
30515;SDS011;17297;54.022;10.760;2024-02-26T00:53:36;4.80;;;3.78;;
30515;SDS011;17297;54.022;10.760;2024-02-26T00:56:01;6.05;;;4.85;;
30515;SDS011;17297;54.022;10.760;2024-02-26T00:58:27;5.40;;;4.40;;
30515;SDS011;17297;54.022;10.760;2024-02-26T01:00:52;6.25;;;4.68;;
30515;SDS011;17297;54.022;10.760;2024-02-26T01:03:18;5.85;;;4.72;;
30515;SDS011;17297;54.022;10.760;2024-02-26T01:05:44;5.28;;;4.35;;
30515;SDS011;17297;54.022;10.760;2024-02-26T01:08:10;5.35;;;4.57;;
30515;SDS011;17297;54.022;10.760;2024-02-26T01:10:35;6.05;;;4.60;;
30515;SDS011;17297;54.022;10.760;2024-02-26T01:13:01;5.28;;;4.15;;
30515;SDS011;17297;54.022;10.760;2024-02-26T01:15:27;4.43;;;3.83;;
30515;SDS011;17297;54.022;10.760;2024-02-26T01:17:52;4.97;;;4.20;;
30515;SDS011;17297;54.022;10.760;2024-02-26T01:20:18;7.43;;;4.97;;
30515;SDS011;17297;54.022;10.760;2024-02-26T01:22:43;5.82;;;4.57;;
30515;SDS011;17297;54.022;10.760;2024-02-26T01:25:09;5.70;;;4.93;;
30515;SDS011;17297;54.022;10.760;2024-02-26T01:27:35;7.93;;;5.47;;
30515;SDS011;17297;54.022;10.760;2024-02-26T01:30:02;7.35;;;5.65;;
30515;SDS011;17297;54.022;10.760;2024-02-26T01:32:29;6.20;;;5.28;;
30515;SDS011;17297;54.022;10.760;2024-02-26T01:34:54;9.30;;;5.85;;
30515;SDS011;17297;54.022;10.760;2024-02-26T01:37:20;9.30;;;6.72;;
30515;SDS011;17297;54.022;10.760;2024-02-26T01:39:45;10.15;;;7.47;;
30515;SDS011;17297;54.022;10.760;2024-02-26T01:42:11;8.55;;;6.22;;
30515;SDS011;17297;54.022;10.760;2024-02-26T01:44:36;7.82;;;6.47;;
30515;SDS011;17297;54.022;10.760;2024-02-26T01:47:03;7.70;;;5.60;;
30515;SDS011;17297;54.022;10.760;2024-02-26T01:49:30;9.85;;;7.30;;
30515;SDS011;17297;54.022;10.760;2024-02-26T01:51:56;9.85;;;6.45;;
30515;SDS011;17297;54.022;10.760;2024-02-26T01:54:22;9.18;;;6.57;;
30515;SDS011;17297;54.022;10.760;2024-02-26T01:56:48;7.65;;;5.72;;
30515;SDS011;17297;54.022;10.760;2024-02-26T01:59:15;7.65;;;5.47;;
30515;SDS011;17297;54.022;10.760;2024-02-26T02:01:42;8.93;;;6.18;;
30515;SDS011;17297;54.022;10.760;2024-02-26T02:04:10;6.60;;;5.53;;
30515;SDS011;17297;54.022;10.760;2024-02-26T02:06:36;15.20;;;6.38;;
30515;SDS011;17297;54.022;10.760;2024-02-26T02:09:03;9.35;;;6.78;;
30515;SDS011;17297;54.022;10.760;2024-02-26T02:11:32;8.10;;;6.18;;
30515;SDS011;17297;54.022;10.760;2024-02-26T02:13:58;7.72;;;5.85;;
30515;SDS011;17297;54.022;10.760;2024-02-26T02:16:24;8.68;;;6.30;;
30515;SDS011;17297;54.022;10.760;2024-02-26T02:18:50;9.48;;;6.55;;
30515;SDS011;17297;54.022;10.760;2024-02-26T02:21:15;9.68;;;6.80;;
30515;SDS011;17297;54.022;10.760;2024-02-26T02:23:40;7.50;;;5.50;;
30515;SDS011;17297;54.022;10.760;2024-02-26T02:26:11;8.27;;;5.80;;
30515;SDS011;17297;54.022;10.760;2024-02-26T02:28:36;8.32;;;6.05;;
30515;SDS011;17297;54.022;10.760;2024-02-26T02:31:02;7.82;;;5.90;;
30515;SDS011;17297;54.022;10.760;2024-02-26T02:33:29;7.00;;;5.43;;
30515;SDS011;17297;54.022;10.760;2024-02-26T02:35:54;7.80;;;6.50;;
30515;SDS011;17297;54.022;10.760;2024-02-26T02:38:20;7.05;;;5.28;;
30515;SDS011;17297;54.022;10.760;2024-02-26T02:40:46;6.78;;;5.28;;
30515;SDS011;17297;54.022;10.760;2024-02-26T02:43:11;7.68;;;5.15;;
30515;SDS011;17297;54.022;10.760;2024-02-26T02:45:36;8.55;;;5.13;;
30515;SDS011;17297;54.022;10.760;2024-02-26T02:48:02;8.07;;;5.07;;
30515;SDS011;17297;54.022;10.760;2024-02-26T02:50:28;6.97;;;5.40;;
30515;SDS011;17297;54.022;10.760;2024-02-26T02:52:54;8.48;;;5.90;;
30515;SDS011;17297;54.022;10.760;2024-02-26T02:55:19;7.57;;;5.13;;
30515;SDS011;17297;54.022;10.760;2024-02-26T02:57:45;6.10;;;5.10;;
30515;SDS011;17297;54.022;10.760;2024-02-26T03:00:10;7.15;;;4.85;;
30515;SDS011;17297;54.022;10.760;2024-02-26T03:02:36;8.38;;;5.65;;
30515;SDS011;17297;54.022;10.760;2024-02-26T03:05:02;6.82;;;5.53;;
30515;SDS011;17297;54.022;10.760;2024-02-26T03:07:28;6.97;;;5.70;;
30515;SDS011;17297;54.022;10.760;2024-02-26T03:09:54;7.47;;;5.57;;
30515;SDS011;17297;54.022;10.760;2024-02-26T03:12:19;8.70;;;5.43;;
30515;SDS011;17297;54.022;10.760;2024-02-26T03:14:45;8.07;;;5.20;;
30515;SDS011;17297;54.022;10.760;2024-02-26T03:17:10;8.10;;;5.68;;
30515;SDS011;17297;54.022;10.760;2024-02-26T03:19:36;8.48;;;5.57;;
30515;SDS011;17297;54.022;10.760;2024-02-26T03:22:01;8.02;;;5.85;;
30515;SDS011;17297;54.022;10.760;2024-02-26T03:24:27;8.07;;;5.68;;
30515;SDS011;17297;54.022;10.760;2024-02-26T03:26:53;8.85;;;6.95;;
30515;SDS011;17297;54.022;10.760;2024-02-26T03:29:18;5.72;;;5.13;;
30515;SDS011;17297;54.022;10.760;2024-02-26T03:31:44;7.03;;;5.22;;
30515;SDS011;17297;54.022;10.760;2024-02-26T03:34:09;7.85;;;5.78;;
30515;SDS011;17297;54.022;10.760;2024-02-26T03:36:34;8.25;;;6.20;;
30515;SDS011;17297;54.022;10.760;2024-02-26T03:39:02;9.68;;;5.65;;
30515;SDS011;17297;54.022;10.760;2024-02-26T03:41:32;9.27;;;5.90;;
30515;SDS011;17297;54.022;10.760;2024-02-26T03:44:00;8.65;;;5.80;;
30515;SDS011;17297;54.022;10.760;2024-02-26T03:46:26;9.80;;;6.00;;
30515;SDS011;17297;54.022;10.760;2024-02-26T03:48:51;8.57;;;5.68;;
30515;SDS011;17297;54.022;10.760;2024-02-26T03:51:17;7.82;;;5.88;;
30515;SDS011;17297;54.022;10.760;2024-02-26T03:53:42;8.02;;;5.72;;
30515;SDS011;17297;54.022;10.760;2024-02-26T03:56:13;6.55;;;4.97;;
30515;SDS011;17297;54.022;10.760;2024-02-26T03:58:39;8.27;;;6.68;;
30515;SDS011;17297;54.022;10.760;2024-02-26T04:01:06;7.85;;;5.13;;
30515;SDS011;17297;54.022;10.760;2024-02-26T04:03:32;7.25;;;5.38;;
30515;SDS011;17297;54.022;10.760;2024-02-26T04:05:58;9.65;;;5.78;;
30515;SDS011;17297;54.022;10.760;2024-02-26T04:08:23;9.15;;;6.05;;
30515;SDS011;17297;54.022;10.760;2024-02-26T04:10:48;11.38;;;6.80;;
30515;SDS011;17297;54.022;10.760;2024-02-26T04:13:14;8.98;;;6.00;;
30515;SDS011;17297;54.022;10.760;2024-02-26T04:15:39;10.60;;;6.82;;
30515;SDS011;17297;54.022;10.760;2024-02-26T04:18:05;8.95;;;6.15;;
30515;SDS011;17297;54.022;10.760;2024-02-26T04:20:30;9.80;;;6.63;;
30515;SDS011;17297;54.022;10.760;2024-02-26T04:22:55;12.52;;;7.63;;
30515;SDS011;17297;54.022;10.760;2024-02-26T04:25:22;11.27;;;6.90;;
30515;SDS011;17297;54.022;10.760;2024-02-26T04:27:47;8.63;;;5.97;;
30515;SDS011;17297;54.022;10.760;2024-02-26T04:30:13;8.85;;;5.93;;
30515;SDS011;17297;54.022;10.760;2024-02-26T04:32:38;10.00;;;7.07;;
30515;SDS011;17297;54.022;10.760;2024-02-26T04:35:07;12.20;;;6.57;;
30515;SDS011;17297;54.022;10.760;2024-02-26T04:37:32;7.57;;;5.85;;
30515;SDS011;17297;54.022;10.760;2024-02-26T04:39:58;8.95;;;6.40;;
30515;SDS011;17297;54.022;10.760;2024-02-26T04:42:24;8.13;;;5.50;;
30515;SDS011;17297;54.022;10.760;2024-02-26T04:44:49;7.80;;;5.53;;
30515;SDS011;17297;54.022;10.760;2024-02-26T04:47:15;9.05;;;6.10;;
30515;SDS011;17297;54.022;10.760;2024-02-26T04:49:40;8.27;;;6.25;;
30515;SDS011;17297;54.022;10.760;2024-02-26T04:52:06;9.23;;;6.00;;
30515;SDS011;17297;54.022;10.760;2024-02-26T04:54:31;7.13;;;4.85;;
30515;SDS011;17297;54.022;10.760;2024-02-26T04:56:56;9.57;;;6.03;;
30515;SDS011;17297;54.022;10.760;2024-02-26T04:59:22;8.68;;;6.10;;
30515;SDS011;17297;54.022;10.760;2024-02-26T05:01:47;10.15;;;6.22;;
30515;SDS011;17297;54.022;10.760;2024-02-26T05:04:12;9.48;;;6.30;;
30515;SDS011;17297;54.022;10.760;2024-02-26T05:06:38;10.85;;;7.00;;
30515;SDS011;17297;54.022;10.760;2024-02-26T05:09:03;9.43;;;5.97;;
30515;SDS011;17297;54.022;10.760;2024-02-26T05:11:29;8.38;;;5.65;;
30515;SDS011;17297;54.022;10.760;2024-02-26T05:13:54;9.68;;;6.18;;
30515;SDS011;17297;54.022;10.760;2024-02-26T05:16:19;8.25;;;5.35;;
30515;SDS011;17297;54.022;10.760;2024-02-26T05:18:46;8.68;;;6.40;;
30515;SDS011;17297;54.022;10.760;2024-02-26T05:21:12;9.63;;;5.65;;
30515;SDS011;17297;54.022;10.760;2024-02-26T05:23:37;10.02;;;6.03;;
30515;SDS011;17297;54.022;10.760;2024-02-26T05:26:03;7.63;;;5.28;;
30515;SDS011;17297;54.022;10.760;2024-02-26T05:28:28;9.30;;;6.13;;
30515;SDS011;17297;54.022;10.760;2024-02-26T05:30:53;9.63;;;6.95;;
30515;SDS011;17297;54.022;10.760;2024-02-26T05:33:19;9.07;;;6.05;;
30515;SDS011;17297;54.022;10.760;2024-02-26T05:35:44;8.50;;;5.80;;
30515;SDS011;17297;54.022;10.760;2024-02-26T05:38:09;7.97;;;5.85;;
30515;SDS011;17297;54.022;10.760;2024-02-26T05:40:35;9.38;;;5.80;;
30515;SDS011;17297;54.022;10.760;2024-02-26T05:43:00;10.50;;;6.10;;
30515;SDS011;17297;54.022;10.760;2024-02-26T05:45:26;10.02;;;6.93;;
30515;SDS011;17297;54.022;10.760;2024-02-26T05:47:51;8.15;;;5.70;;
30515;SDS011;17297;54.022;10.760;2024-02-26T05:50:17;9.50;;;6.22;;
30515;SDS011;17297;54.022;10.760;2024-02-26T05:52:42;9.88;;;6.10;;
30515;SDS011;17297;54.022;10.760;2024-02-26T05:55:08;7.72;;;5.20;;
30515;SDS011;17297;54.022;10.760;2024-02-26T05:57:33;9.25;;;5.93;;
30515;SDS011;17297;54.022;10.760;2024-02-26T05:59:59;9.27;;;6.32;;
30515;SDS011;17297;54.022;10.760;2024-02-26T06:02:36;6.85;;;5.40;;
30515;SDS011;17297;54.022;10.760;2024-02-26T06:05:02;9.55;;;6.47;;
30515;SDS011;17297;54.022;10.760;2024-02-26T06:07:28;7.97;;;5.60;;
30515;SDS011;17297;54.022;10.760;2024-02-26T06:09:53;8.65;;;6.07;;
30515;SDS011;17297;54.022;10.760;2024-02-26T06:12:19;7.63;;;5.63;;
30515;SDS011;17297;54.022;10.760;2024-02-26T06:14:44;8.25;;;5.93;;
30515;SDS011;17297;54.022;10.760;2024-02-26T06:17:09;8.93;;;6.55;;
30515;SDS011;17297;54.022;10.760;2024-02-26T06:19:35;10.27;;;6.03;;
30515;SDS011;17297;54.022;10.760;2024-02-26T06:22:00;8.90;;;6.47;;
30515;SDS011;17297;54.022;10.760;2024-02-26T06:24:25;8.45;;;5.68;;
30515;SDS011;17297;54.022;10.760;2024-02-26T06:26:51;9.27;;;5.40;;
30515;SDS011;17297;54.022;10.760;2024-02-26T06:29:16;8.07;;;5.28;;
30515;SDS011;17297;54.022;10.760;2024-02-26T06:31:41;8.35;;;5.28;;
30515;SDS011;17297;54.022;10.760;2024-02-26T06:34:08;8.88;;;6.07;;
30515;SDS011;17297;54.022;10.760;2024-02-26T06:36:33;8.68;;;5.63;;
30515;SDS011;17297;54.022;10.760;2024-02-26T06:38:59;9.27;;;5.70;;
30515;SDS011;17297;54.022;10.760;2024-02-26T06:41:25;8.13;;;5.80;;
30515;SDS011;17297;54.022;10.760;2024-02-26T06:43:53;8.38;;;5.45;;
30515;SDS011;17297;54.022;10.760;2024-02-26T06:46:18;8.05;;;4.85;;
30515;SDS011;17297;54.022;10.760;2024-02-26T06:48:44;10.07;;;6.40;;
30515;SDS011;17297;54.022;10.760;2024-02-26T06:51:09;9.50;;;6.10;;
30515;SDS011;17297;54.022;10.760;2024-02-26T06:53:34;8.68;;;5.85;;
30515;SDS011;17297;54.022;10.760;2024-02-26T06:56:00;8.07;;;5.90;;
30515;SDS011;17297;54.022;10.760;2024-02-26T06:58:25;9.32;;;5.93;;
30515;SDS011;17297;54.022;10.760;2024-02-26T07:00:51;8.45;;;5.93;;
30515;SDS011;17297;54.022;10.760;2024-02-26T07:03:16;9.80;;;5.88;;
30515;SDS011;17297;54.022;10.760;2024-02-26T07:05:41;8.73;;;5.65;;
30515;SDS011;17297;54.022;10.760;2024-02-26T07:08:07;10.35;;;7.13;;
30515;SDS011;17297;54.022;10.760;2024-02-26T07:10:32;10.02;;;5.97;;
30515;SDS011;17297;54.022;10.760;2024-02-26T07:12:58;8.43;;;5.32;;
30515;SDS011;17297;54.022;10.760;2024-02-26T07:15:23;10.85;;;5.70;;
30515;SDS011;17297;54.022;10.760;2024-02-26T07:17:49;9.82;;;6.00;;
30515;SDS011;17297;54.022;10.760;2024-02-26T07:20:14;10.00;;;5.70;;
30515;SDS011;17297;54.022;10.760;2024-02-26T07:22:40;9.68;;;6.53;;
30515;SDS011;17297;54.022;10.760;2024-02-26T07:25:07;10.25;;;5.95;;
30515;SDS011;17297;54.022;10.760;2024-02-26T07:27:35;9.32;;;5.72;;
30515;SDS011;17297;54.022;10.760;2024-02-26T07:30:00;9.88;;;6.32;;
30515;SDS011;17297;54.022;10.760;2024-02-26T07:32:26;8.25;;;5.70;;
30515;SDS011;17297;54.022;10.760;2024-02-26T07:34:51;9.88;;;6.35;;
30515;SDS011;17297;54.022;10.760;2024-02-26T07:37:16;8.77;;;5.72;;
30515;SDS011;17297;54.022;10.760;2024-02-26T07:39:42;8.73;;;5.60;;
30515;SDS011;17297;54.022;10.760;2024-02-26T07:42:07;8.82;;;6.20;;
30515;SDS011;17297;54.022;10.760;2024-02-26T07:44:32;8.82;;;5.38;;
30515;SDS011;17297;54.022;10.760;2024-02-26T07:46:58;9.38;;;6.45;;
30515;SDS011;17297;54.022;10.760;2024-02-26T07:49:23;10.63;;;6.70;;
30515;SDS011;17297;54.022;10.760;2024-02-26T07:51:49;9.02;;;5.82;;
30515;SDS011;17297;54.022;10.760;2024-02-26T07:54:14;12.40;;;7.05;;
30515;SDS011;17297;54.022;10.760;2024-02-26T07:56:41;10.35;;;6.25;;
30515;SDS011;17297;54.022;10.760;2024-02-26T07:59:06;10.13;;;6.28;;
30515;SDS011;17297;54.022;10.760;2024-02-26T08:01:32;7.95;;;5.20;;
30515;SDS011;17297;54.022;10.760;2024-02-26T08:03:58;8.40;;;5.15;;
30515;SDS011;17297;54.022;10.760;2024-02-26T08:06:24;9.75;;;5.65;;
30515;SDS011;17297;54.022;10.760;2024-02-26T08:08:50;11.05;;;6.50;;
30515;SDS011;17297;54.022;10.760;2024-02-26T08:11:15;10.10;;;5.65;;
30515;SDS011;17297;54.022;10.760;2024-02-26T08:13:43;15.65;;;6.85;;
30515;SDS011;17297;54.022;10.760;2024-02-26T08:16:08;11.30;;;6.32;;
30515;SDS011;17297;54.022;10.760;2024-02-26T08:18:34;13.18;;;6.28;;
30515;SDS011;17297;54.022;10.760;2024-02-26T08:21:00;15.70;;;7.18;;
30515;SDS011;17297;54.022;10.760;2024-02-26T08:23:25;11.48;;;6.03;;
30515;SDS011;17297;54.022;10.760;2024-02-26T08:25:51;8.48;;;5.43;;
30515;SDS011;17297;54.022;10.760;2024-02-26T08:28:16;8.30;;;5.75;;
30515;SDS011;17297;54.022;10.760;2024-02-26T08:30:43;8.20;;;5.10;;
30515;SDS011;17297;54.022;10.760;2024-02-26T08:33:08;8.98;;;5.40;;
30515;SDS011;17297;54.022;10.760;2024-02-26T08:35:35;8.77;;;4.80;;
30515;SDS011;17297;54.022;10.760;2024-02-26T08:38:00;8.85;;;4.05;;
30515;SDS011;17297;54.022;10.760;2024-02-26T08:40:25;6.80;;;4.53;;
30515;SDS011;17297;54.022;10.760;2024-02-26T08:42:51;8.63;;;4.68;;
30515;SDS011;17297;54.022;10.760;2024-02-26T08:45:16;8.07;;;4.32;;
30515;SDS011;17297;54.022;10.760;2024-02-26T08:47:42;7.80;;;5.20;;
30515;SDS011;17297;54.022;10.760;2024-02-26T08:50:09;9.25;;;5.35;;
30515;SDS011;17297;54.022;10.760;2024-02-26T08:52:37;6.97;;;4.97;;
30515;SDS011;17297;54.022;10.760;2024-02-26T08:55:02;6.30;;;4.35;;
30515;SDS011;17297;54.022;10.760;2024-02-26T08:57:28;9.23;;;5.60;;
30515;SDS011;17297;54.022;10.760;2024-02-26T08:59:53;8.43;;;4.90;;
30515;SDS011;17297;54.022;10.760;2024-02-26T09:02:18;7.03;;;4.63;;
30515;SDS011;17297;54.022;10.760;2024-02-26T09:04:45;8.93;;;5.88;;
30515;SDS011;17297;54.022;10.760;2024-02-26T09:07:10;8.60;;;5.00;;
30515;SDS011;17297;54.022;10.760;2024-02-26T09:09:35;8.82;;;5.28;;
30515;SDS011;17297;54.022;10.760;2024-02-26T09:12:01;8.95;;;5.53;;
30515;SDS011;17297;54.022;10.760;2024-02-26T09:14:27;10.10;;;6.22;;
30515;SDS011;17297;54.022;10.760;2024-02-26T09:16:52;12.00;;;6.43;;
30515;SDS011;17297;54.022;10.760;2024-02-26T09:19:18;9.32;;;5.45;;
30515;SDS011;17297;54.022;10.760;2024-02-26T09:21:46;9.60;;;5.82;;
30515;SDS011;17297;54.022;10.760;2024-02-26T09:24:12;8.07;;;4.88;;
30515;SDS011;17297;54.022;10.760;2024-02-26T09:26:38;6.90;;;4.82;;
30515;SDS011;17297;54.022;10.760;2024-02-26T09:29:03;11.18;;;6.55;;
30515;SDS011;17297;54.022;10.760;2024-02-26T09:31:33;10.68;;;6.32;;
30515;SDS011;17297;54.022;10.760;2024-02-26T09:33:59;13.60;;;6.72;;
30515;SDS011;17297;54.022;10.760;2024-02-26T09:36:24;12.60;;;6.38;;
30515;SDS011;17297;54.022;10.760;2024-02-26T09:38:49;11.80;;;6.53;;
30515;SDS011;17297;54.022;10.760;2024-02-26T09:41:15;11.27;;;6.63;;
30515;SDS011;17297;54.022;10.760;2024-02-26T09:43:41;11.43;;;6.05;;
30515;SDS011;17297;54.022;10.760;2024-02-26T09:46:10;13.48;;;7.78;;
30515;SDS011;17297;54.022;10.760;2024-02-26T09:48:35;13.10;;;7.55;;
30515;SDS011;17297;54.022;10.760;2024-02-26T09:51:02;12.23;;;7.00;;
30515;SDS011;17297;54.022;10.760;2024-02-26T09:53:29;14.30;;;7.47;;
30515;SDS011;17297;54.022;10.760;2024-02-26T09:55:57;15.15;;;7.28;;
30515;SDS011;17297;54.022;10.760;2024-02-26T09:58:22;12.90;;;6.70;;
30515;SDS011;17297;54.022;10.760;2024-02-26T10:00:51;14.43;;;7.68;;
30515;SDS011;17297;54.022;10.760;2024-02-26T10:03:18;18.08;;;9.00;;
30515;SDS011;17297;54.022;10.760;2024-02-26T10:05:50;15.00;;;8.07;;
30515;SDS011;17297;54.022;10.760;2024-02-26T10:08:16;14.23;;;7.97;;
30515;SDS011;17297;54.022;10.760;2024-02-26T10:10:43;14.00;;;7.15;;
30515;SDS011;17297;54.022;10.760;2024-02-26T10:13:09;19.35;;;9.55;;
30515;SDS011;17297;54.022;10.760;2024-02-26T10:15:37;15.85;;;8.93;;
30515;SDS011;17297;54.022;10.760;2024-02-26T10:18:05;19.30;;;10.15;;
30515;SDS011;17297;54.022;10.760;2024-02-26T10:20:31;18.15;;;9.95;;
30515;SDS011;17297;54.022;10.760;2024-02-26T10:22:57;16.38;;;9.48;;
30515;SDS011;17297;54.022;10.760;2024-02-26T10:25:22;17.08;;;10.30;;
30515;SDS011;17297;54.022;10.760;2024-02-26T10:27:48;17.75;;;10.30;;
30515;SDS011;17297;54.022;10.760;2024-02-26T10:30:18;19.77;;;10.93;;
30515;SDS011;17297;54.022;10.760;2024-02-26T10:32:48;18.33;;;11.48;;
30515;SDS011;17297;54.022;10.760;2024-02-26T10:35:14;17.95;;;10.48;;
30515;SDS011;17297;54.022;10.760;2024-02-26T10:37:41;18.23;;;10.48;;
30515;SDS011;17297;54.022;10.760;2024-02-26T10:40:13;21.67;;;12.07;;
30515;SDS011;17297;54.022;10.760;2024-02-26T10:42:40;17.08;;;9.68;;
30515;SDS011;17297;54.022;10.760;2024-02-26T10:45:07;24.80;;;14.05;;
30515;SDS011;17297;54.022;10.760;2024-02-26T10:47:37;19.23;;;11.07;;
30515;SDS011;17297;54.022;10.760;2024-02-26T10:50:03;19.10;;;11.05;;
30515;SDS011;17297;54.022;10.760;2024-02-26T10:52:31;14.70;;;9.15;;
30515;SDS011;17297;54.022;10.760;2024-02-26T10:55:01;20.00;;;12.13;;
30515;SDS011;17297;54.022;10.760;2024-02-26T10:57:29;19.13;;;10.20;;
30515;SDS011;17297;54.022;10.760;2024-02-26T10:59:58;15.93;;;9.23;;
30515;SDS011;17297;54.022;10.760;2024-02-26T11:02:25;16.48;;;8.73;;
30515;SDS011;17297;54.022;10.760;2024-02-26T11:04:51;14.98;;;8.73;;
30515;SDS011;17297;54.022;10.760;2024-02-26T11:07:17;19.55;;;10.85;;
30515;SDS011;17297;54.022;10.760;2024-02-26T11:09:44;15.70;;;9.75;;
30515;SDS011;17297;54.022;10.760;2024-02-26T11:12:16;14.98;;;8.40;;
30515;SDS011;17297;54.022;10.760;2024-02-26T11:14:44;14.70;;;8.95;;
30515;SDS011;17297;54.022;10.760;2024-02-26T11:17:11;21.83;;;12.45;;
30515;SDS011;17297;54.022;10.760;2024-02-26T11:19:38;14.20;;;8.50;;
30515;SDS011;17297;54.022;10.760;2024-02-26T11:22:04;17.13;;;8.98;;
30515;SDS011;17297;54.022;10.760;2024-02-26T11:24:29;16.58;;;9.40;;
30515;SDS011;17297;54.022;10.760;2024-02-26T11:26:55;15.25;;;9.07;;
30515;SDS011;17297;54.022;10.760;2024-02-26T11:29:25;13.43;;;8.05;;
30515;SDS011;17297;54.022;10.760;2024-02-26T11:31:54;12.90;;;8.88;;
30515;SDS011;17297;54.022;10.760;2024-02-26T11:34:20;15.88;;;8.80;;
30515;SDS011;17297;54.022;10.760;2024-02-26T11:36:46;11.68;;;8.27;;
30515;SDS011;17297;54.022;10.760;2024-02-26T11:39:11;12.88;;;8.57;;
30515;SDS011;17297;54.022;10.760;2024-02-26T11:41:38;14.68;;;9.25;;
30515;SDS011;17297;54.022;10.760;2024-02-26T11:44:04;19.70;;;9.38;;
30515;SDS011;17297;54.022;10.760;2024-02-26T11:46:32;14.18;;;7.65;;
30515;SDS011;17297;54.022;10.760;2024-02-26T11:49:02;15.02;;;9.52;;
30515;SDS011;17297;54.022;10.760;2024-02-26T11:51:32;15.65;;;8.63;;
30515;SDS011;17297;54.022;10.760;2024-02-26T11:53:58;17.23;;;9.45;;
30515;SDS011;17297;54.022;10.760;2024-02-26T11:56:24;14.65;;;8.70;;
30515;SDS011;17297;54.022;10.760;2024-02-26T11:59:02;14.90;;;9.05;;
30515;SDS011;17297;54.022;10.760;2024-02-26T12:01:48;14.68;;;9.43;;
30515;SDS011;17297;54.022;10.760;2024-02-26T12:04:18;12.25;;;7.50;;
30515;SDS011;17297;54.022;10.760;2024-02-26T12:06:46;14.23;;;8.20;;
30515;SDS011;17297;54.022;10.760;2024-02-26T12:09:13;16.33;;;9.40;;
30515;SDS011;17297;54.022;10.760;2024-02-26T12:11:55;14.00;;;8.38;;
30515;SDS011;17297;54.022;10.760;2024-02-26T12:14:24;14.68;;;8.45;;
30515;SDS011;17297;54.022;10.760;2024-02-26T12:16:50;14.82;;;8.75;;
30515;SDS011;17297;54.022;10.760;2024-02-26T12:19:16;16.77;;;9.00;;
30515;SDS011;17297;54.022;10.760;2024-02-26T12:21:42;16.33;;;9.93;;
30515;SDS011;17297;54.022;10.760;2024-02-26T12:24:09;16.30;;;8.98;;
30515;SDS011;17297;54.022;10.760;2024-02-26T12:26:36;13.07;;;7.88;;
30515;SDS011;17297;54.022;10.760;2024-02-26T12:29:01;16.73;;;10.23;;
30515;SDS011;17297;54.022;10.760;2024-02-26T12:31:27;15.88;;;8.45;;
30515;SDS011;17297;54.022;10.760;2024-02-26T12:33:54;13.90;;;8.75;;
30515;SDS011;17297;54.022;10.760;2024-02-26T12:36:21;11.60;;;6.97;;
30515;SDS011;17297;54.022;10.760;2024-02-26T12:38:48;15.48;;;9.73;;
30515;SDS011;17297;54.022;10.760;2024-02-26T12:41:15;13.48;;;7.90;;
30515;SDS011;17297;54.022;10.760;2024-02-26T12:43:44;11.18;;;7.82;;
30515;SDS011;17297;54.022;10.760;2024-02-26T12:46:10;12.13;;;6.75;;
30515;SDS011;17297;54.022;10.760;2024-02-26T12:48:36;10.32;;;7.35;;
30515;SDS011;17297;54.022;10.760;2024-02-26T12:51:01;9.95;;;6.35;;
30515;SDS011;17297;54.022;10.760;2024-02-26T12:53:27;15.30;;;8.57;;
30515;SDS011;17297;54.022;10.760;2024-02-26T12:55:55;11.77;;;7.22;;
30515;SDS011;17297;54.022;10.760;2024-02-26T12:58:22;12.35;;;8.45;;
30515;SDS011;17297;54.022;10.760;2024-02-26T13:00:53;15.32;;;7.78;;
30515;SDS011;17297;54.022;10.760;2024-02-26T13:03:19;15.13;;;8.48;;
30515;SDS011;17297;54.022;10.760;2024-02-26T13:05:46;12.80;;;7.80;;
30515;SDS011;17297;54.022;10.760;2024-02-26T13:08:21;11.82;;;7.15;;
30515;SDS011;17297;54.022;10.760;2024-02-26T13:10:46;11.25;;;7.25;;
30515;SDS011;17297;54.022;10.760;2024-02-26T13:13:15;12.30;;;7.38;;
30515;SDS011;17297;54.022;10.760;2024-02-26T13:15:42;11.90;;;8.50;;
30515;SDS011;17297;54.022;10.760;2024-02-26T13:18:09;11.38;;;7.18;;
30515;SDS011;17297;54.022;10.760;2024-02-26T13:20:35;10.25;;;7.05;;
30515;SDS011;17297;54.022;10.760;2024-02-26T13:23:02;10.95;;;6.78;;
30515;SDS011;17297;54.022;10.760;2024-02-26T13:25:28;10.27;;;6.20;;
30515;SDS011;17297;54.022;10.760;2024-02-26T13:28:04;12.65;;;7.32;;
30515;SDS011;17297;54.022;10.760;2024-02-26T13:33:18;10.15;;;6.55;;
30515;SDS011;17297;54.022;10.760;2024-02-26T13:35:44;11.25;;;6.78;;
30515;SDS011;17297;54.022;10.760;2024-02-26T13:38:10;9.30;;;6.68;;
30515;SDS011;17297;54.022;10.760;2024-02-26T13:40:37;11.15;;;6.47;;
30515;SDS011;17297;54.022;10.760;2024-02-26T13:43:02;13.82;;;8.00;;
30515;SDS011;17297;54.022;10.760;2024-02-26T13:45:28;11.00;;;7.38;;
30515;SDS011;17297;54.022;10.760;2024-02-26T13:48:03;11.52;;;7.35;;
30515;SDS011;17297;54.022;10.760;2024-02-26T13:50:30;14.00;;;8.30;;
30515;SDS011;17297;54.022;10.760;2024-02-26T13:52:55;11.38;;;7.82;;
30515;SDS011;17297;54.022;10.760;2024-02-26T13:55:22;10.68;;;6.38;;
30515;SDS011;17297;54.022;10.760;2024-02-26T13:57:51;9.80;;;6.57;;
30515;SDS011;17297;54.022;10.760;2024-02-26T14:00:18;9.52;;;6.35;;
30515;SDS011;17297;54.022;10.760;2024-02-26T14:02:44;8.88;;;5.75;;
30515;SDS011;17297;54.022;10.760;2024-02-26T14:05:09;9.77;;;5.90;;
30515;SDS011;17297;54.022;10.760;2024-02-26T14:07:35;9.63;;;7.00;;
30515;SDS011;17297;54.022;10.760;2024-02-26T14:10:00;9.80;;;6.70;;
30515;SDS011;17297;54.022;10.760;2024-02-26T14:12:25;12.25;;;6.82;;
30515;SDS011;17297;54.022;10.760;2024-02-26T14:14:51;9.63;;;6.00;;
30515;SDS011;17297;54.022;10.760;2024-02-26T14:17:19;10.02;;;6.10;;
30515;SDS011;17297;54.022;10.760;2024-02-26T14:19:44;8.80;;;6.20;;
30515;SDS011;17297;54.022;10.760;2024-02-26T14:22:13;10.13;;;6.55;;
30515;SDS011;17297;54.022;10.760;2024-02-26T14:24:39;10.63;;;6.65;;